Time;durP1;ratioP1;P1;durP2;ratioP2;P2;SDS_P1;SDS_P2;PMS_P1;PMS_P2;Temp;Humidity;BMP_temperature;BMP_pressure;BME280_temperature;BME280_humidity;BME280_pressure;Samples;Min_cycle;Max_cycle;Signal;HPM_P1;HPM_P2
2021/12/06 00:00:47;;;;;;;13.80;11.80;;;;;;;5.79;56.88;97205.75;8416915;28;20261;-68
2021/12/06 00:04:51;;;;;;;13.10;11.70;;;;;;;5.81;56.97;97206.53;8418362;28;20417;-68
2021/12/06 00:08:54;;;;;;;14.17;11.60;;;;;;;5.76;57.05;97203.28;8417860;28;20234;-67
2021/12/06 00:12:58;;;;;;;15.13;11.93;;;;;;;5.82;57.06;97210.75;8417710;28;20234;-68
2021/12/06 00:17:03;;;;;;;13.20;11.37;;;;;;;5.78;57.05;97211.78;8417511;28;20238;-68
2021/12/06 00:21:07;;;;;;;16.43;12.10;;;;;;;5.60;57.27;97211.56;8442648;28;20233;-68
2021/12/06 00:25:10;;;;;;;15.33;12.60;;;;;;;5.53;58.03;97214.41;8451314;28;20238;-68
2021/12/06 00:29:15;;;;;;;18.93;15.43;;;;;;;5.66;57.71;97219.03;8450953;28;20230;-67
2021/12/06 00:33:18;;;;;;;17.77;14.67;;;;;;;5.76;57.98;97219.53;8450803;28;20423;-68
2021/12/06 00:37:28;;;;;;;16.60;13.77;;;;;;;5.85;57.99;97221.75;8450921;28;20249;-67
2021/12/06 00:41:31;;;;;;;16.07;13.63;;;;;;;5.82;57.37;97221.88;8451165;28;20230;-68
2021/12/06 00:45:36;;;;;;;15.13;12.67;;;;;;;5.85;57.79;97224.34;8450744;28;20433;-68
2021/12/06 00:49:39;;;;;;;15.40;13.53;;;;;;;5.80;58.32;97233.09;8450467;28;20234;-68
2021/12/06 00:53:43;;;;;;;17.03;13.13;;;;;;;5.88;57.89;97241.38;8450548;28;20248;-68
2021/12/06 00:57:46;;;;;;;14.97;11.27;;;;;;;6.02;57.89;97246.88;8450257;28;20247;-68
2021/12/06 01:01:51;;;;;;;14.33;11.93;;;;;;;6.04;58.00;97246.81;8450230;28;20234;-68
2021/12/06 01:05:54;;;;;;;15.13;13.17;;;;;;;6.01;58.29;97250.31;8449950;28;20423;-68
2021/12/06 01:09:58;;;;;;;16.43;12.00;;;;;;;6.03;58.03;97251.09;8450232;28;20230;-68
2021/12/06 01:14:01;;;;;;;14.23;11.30;;;;;;;5.98;58.06;97255.59;8449777;28;20235;-68
2021/12/06 01:18:06;;;;;;;13.20;9.70;;;;;;;6.05;58.02;97256.19;8448736;28;20238;-68
2021/12/06 01:22:22;;;;;;;14.90;10.90;;;;;;;6.06;57.92;97269.00;8441762;28;20257;-68
2021/12/06 01:26:55;;;;;;;13.70;11.20;;;;;;;5.98;58.03;97265.06;8449708;28;20241;-68
2021/12/06 01:31:04;;;;;;;18.83;12.10;;;;;;;6.12;57.84;97269.66;8449979;28;20226;-68
2021/12/06 01:39:30;;;;;;;14.27;10.37;;;;;;;6.05;58.03;97276.75;8448910;28;20237;-68
2021/12/06 01:43:45;;;;;;;19.17;11.57;;;;;;;6.07;58.07;97280.97;8449473;28;20225;-68
2021/12/06 01:47:48;;;;;;;17.23;10.73;;;;;;;6.16;57.83;97279.75;8450917;28;20223;-68
2021/12/06 01:51:55;;;;;;;13.43;10.50;;;;;;;6.10;57.61;97274.84;8448730;28;20238;-68
2021/12/06 01:56:06;;;;;;;13.27;10.47;;;;;;;6.09;58.11;97274.91;8448306;28;20407;-68
2021/12/06 02:00:13;;;;;;;16.70;10.70;;;;;;;6.06;57.88;97275.88;8447890;28;20236;-68
2021/12/06 02:04:19;;;;;;;12.63;10.17;;;;;;;6.02;57.65;97267.44;8448166;28;20414;-68
2021/12/06 02:08:23;;;;;;;12.70;10.47;;;;;;;6.03;57.83;97263.13;8448061;28;20233;-68
2021/12/06 02:12:28;;;;;;;13.83;10.87;;;;;;;5.93;58.39;97267.75;8448136;28;20242;-68
2021/12/06 02:16:40;;;;;;;13.60;10.30;;;;;;;6.00;57.86;97274.38;8447976;28;20330;-68
2021/12/06 02:20:48;;;;;;;15.20;9.90;;;;;;;6.03;57.65;97268.25;8447839;28;20234;-68
2021/12/06 02:24:53;;;;;;;13.13;10.20;;;;;;;5.97;57.63;97279.59;8447605;28;20245;-68
2021/12/06 02:28:57;;;;;;;12.53;9.87;;;;;;;6.05;57.76;97276.75;8447414;28;20249;-68
2021/12/06 02:33:00;;;;;;;12.77;9.93;;;;;;;6.05;57.45;97290.47;8447718;28;20240;-68
2021/12/06 02:37:06;;;;;;;14.87;9.80;;;;;;;6.07;57.27;97295.53;8447018;28;20254;-68
2021/12/06 02:41:13;;;;;;;12.97;9.57;;;;;;;6.09;57.38;97288.59;8447111;28;20225;-68
2021/12/06 02:45:19;;;;;;;16.13;10.20;;;;;;;6.05;57.74;97290.47;8447250;28;20293;-68
2021/12/06 02:49:22;;;;;;;21.33;11.87;;;;;;;6.10;57.74;97289.44;8447726;28;20419;-68
2021/12/06 02:53:26;;;;;;;20.10;11.90;;;;;;;6.12;57.74;97293.63;8447221;28;20237;-68
2021/12/06 02:57:36;;;;;;;20.97;11.83;;;;;;;6.14;58.11;97293.59;8447129;28;20417;-68
2021/12/06 03:01:40;;;;;;;19.97;12.30;;;;;;;6.07;57.97;97303.25;8447275;28;20571;-68
2021/12/06 03:05:45;;;;;;;20.17;11.87;;;;;;;6.17;57.51;97307.16;8446970;28;20234;-68
2021/12/06 03:09:51;;;;;;;16.63;10.60;;;;;;;5.99;57.99;97307.84;8446707;28;20563;-68
2021/12/06 03:13:56;;;;;;;16.93;10.80;;;;;;;5.98;58.18;97319.03;8446876;28;20544;-68
2021/12/06 03:18:00;;;;;;;18.77;11.90;;;;;;;6.07;57.67;97327.25;8446507;28;20241;-68
2021/12/06 03:22:05;;;;;;;20.60;12.27;;;;;;;6.02;58.16;97329.13;8446834;28;20230;-68
2021/12/06 03:26:08;;;;;;;17.37;10.83;;;;;;;6.12;58.09;97345.03;8446095;28;20241;-68
2021/12/06 03:30:14;;;;;;;18.00;11.33;;;;;;;6.11;57.81;97345.09;8446426;28;20241;-68
2021/12/06 03:34:18;;;;;;;17.00;10.67;;;;;;;6.09;57.98;97341.75;8446505;28;20563;-68
2021/12/06 03:38:22;;;;;;;16.03;10.57;;;;;;;6.13;57.85;97351.88;8446354;28;20559;-68
2021/12/06 03:42:25;;;;;;;15.70;10.60;;;;;;;6.07;58.00;97352.94;8449622;28;20233;-68
2021/12/06 03:46:31;;;;;;;17.13;10.33;;;;;;;6.14;58.00;97347.56;8452454;28;20517;-68
2021/12/06 03:50:35;;;;;;;14.43;9.70;;;;;;;6.02;57.99;97346.28;8452635;28;20233;-68
2021/12/06 03:54:38;;;;;;;11.17;9.13;;;;;;;6.07;58.12;97355.50;8452093;28;20248;-68
2021/12/06 03:58:44;;;;;;;12.60;9.30;;;;;;;6.07;57.97;97357.22;8451972;28;20245;-68
2021/12/06 04:02:48;;;;;;;13.07;8.60;;;;;;;6.06;58.32;97355.56;8451539;28;20230;-68
2021/12/06 04:06:52;;;;;;;13.20;8.50;;;;;;;6.10;58.28;97362.25;8451818;28;20238;-68
2021/12/06 04:10:56;;;;;;;10.30;8.20;;;;;;;6.05;58.50;97364.16;8451746;28;20387;-68
2021/12/06 04:14:59;;;;;;;9.43;7.77;;;;;;;6.00;58.50;97369.47;8451438;28;20236;-68
2021/12/06 04:19:03;;;;;;;8.97;7.73;;;;;;;6.04;58.47;97377.91;8451577;28;20245;-68
2021/12/06 04:23:09;;;;;;;8.70;7.80;;;;;;;6.10;58.06;97382.00;8451117;28;20226;-68
2021/12/06 04:27:15;;;;;;;10.03;8.43;;;;;;;6.01;58.30;97378.00;8451204;28;20570;-68
2021/12/06 04:31:18;;;;;;;10.00;8.27;;;;;;;6.02;58.43;97380.53;8451254;28;20230;-68
2021/12/06 04:35:23;;;;;;;9.33;8.33;;;;;;;6.05;58.01;97388.16;8450801;28;20237;-68
2021/12/06 04:39:28;;;;;;;11.27;8.33;;;;;;;6.14;58.36;97397.25;8450820;28;20241;-68
2021/12/06 04:43:31;;;;;;;11.03;8.07;;;;;;;6.13;58.17;97412.72;8450787;28;20226;-68
2021/12/06 04:47:35;;;;;;;12.33;8.53;;;;;;;6.06;57.89;97420.66;8450324;28;20299;-68
2021/12/06 04:51:42;;;;;;;11.73;8.03;;;;;;;6.15;57.77;97426.34;8450004;28;20252;-68
2021/12/06 04:55:48;;;;;;;9.90;8.00;;;;;;;6.07;58.40;97435.19;8449970;28;20234;-68
2021/12/06 04:59:56;;;;;;;12.60;9.20;;;;;;;6.13;57.99;97443.56;8449846;28;20241;-68
2021/12/06 05:04:02;;;;;;;12.07;8.67;;;;;;;6.13;58.18;97443.56;8449819;28;20230;-68
2021/12/06 05:08:11;;;;;;;10.03;8.50;;;;;;;6.21;58.14;97444.16;8449854;28;20430;-68
2021/12/06 05:12:17;;;;;;;11.37;8.50;;;;;;;6.20;58.44;97447.63;8449070;28;20252;-68
2021/12/06 05:16:21;;;;;;;11.73;8.53;;;;;;;6.18;58.37;97455.38;8449012;28;20234;-68
2021/12/06 05:20:24;;;;;;;11.80;9.13;;;;;;;6.17;58.40;97452.84;8449464;28;20246;-68
2021/12/06 05:24:29;;;;;;;13.27;9.37;;;;;;;6.14;58.33;97458.94;8449268;28;20226;-68
2021/12/06 05:28:32;;;;;;;13.60;10.23;;;;;;;6.02;58.87;97456.81;8449214;28;20234;-68
2021/12/06 05:32:36;;;;;;;13.07;9.87;;;;;;;6.05;58.81;97465.28;8449075;28;20225;-68
2021/12/06 05:36:39;;;;;;;15.57;11.80;;;;;;;6.07;58.90;97465.19;8448696;28;20256;-68
2021/12/06 05:40:45;;;;;;;18.20;13.53;;;;;;;6.11;58.79;97469.34;8448624;28;20234;-68
2021/12/06 05:44:48;;;;;;;16.87;13.90;;;;;;;6.05;59.34;97472.97;8449131;28;20408;-68
2021/12/06 05:48:51;;;;;;;20.30;14.97;;;;;;;6.02;59.23;97470.50;8448455;28;20245;-68
2021/12/06 05:52:56;;;;;;;18.13;14.63;;;;;;;6.11;59.28;97482.22;8448095;28;20252;-68
2021/12/06 05:57:01;;;;;;;17.60;15.70;;;;;;;6.13;59.22;97484.72;8448590;28;20230;-68
2021/12/06 06:01:05;;;;;;;22.60;16.93;;;;;;;6.15;59.20;97488.06;8447837;28;20226;-68
2021/12/06 06:05:09;;;;;;;23.83;17.90;;;;;;;6.17;59.04;97504.28;8442075;28;20229;-68
2021/12/06 06:09:12;;;;;;;29.00;17.10;;;;;;;6.02;59.48;97510.81;8447373;28;20234;-67
2021/12/06 06:13:16;;;;;;;18.73;15.50;;;;;;;6.12;59.43;97517.31;8447881;28;20234;-68
2021/12/06 06:17:20;;;;;;;17.87;15.30;;;;;;;5.99;59.67;97523.75;8447855;28;20230;-68
2021/12/06 06:21:23;;;;;;;14.10;12.63;;;;;;;6.13;59.33;97520.69;8447362;28;20245;-68
2021/12/06 06:25:26;;;;;;;15.00;13.40;;;;;;;6.12;59.02;97517.31;8447169;28;20249;-68
2021/12/06 06:29:31;;;;;;;16.00;13.23;;;;;;;6.16;58.89;97526.59;8447488;28;20377;-68
2021/12/06 06:33:34;;;;;;;16.07;13.13;;;;;;;6.08;59.35;97528.59;8447330;28;20252;-68
2021/12/06 06:37:37;;;;;;;14.33;12.67;;;;;;;6.12;59.12;97534.47;8444984;28;20245;-68
2021/12/06 06:41:40;;;;;;;17.50;13.70;;;;;;;6.60;62.97;97542.22;8447161;28;20230;-67
2021/12/06 06:45:45;;;;;;;16.77;14.27;;;;;;;6.36;59.15;97536.22;8447214;28;20234;-68
2021/12/06 06:49:48;;;;;;;19.50;16.30;;;;;;;6.32;59.34;97541.50;8446958;28;20246;-68
2021/12/06 06:53:55;;;;;;;19.43;17.20;;;;;;;6.24;59.32;97544.31;8446786;28;20230;-68
2021/12/06 06:57:58;;;;;;;19.33;16.60;;;;;;;6.19;59.63;97556.53;8446930;28;20241;-68
2021/12/06 07:02:03;;;;;;;20.57;15.43;;;;;;;6.14;59.30;97566.09;8446888;28;20421;-68
2021/12/06 07:06:06;;;;;;;17.37;15.53;;;;;;;6.16;59.31;97565.16;8446523;28;20234;-69
2021/12/06 07:10:10;;;;;;;18.40;16.40;;;;;;;6.11;59.73;97577.34;8446815;28;20271;-68
2021/12/06 07:14:13;;;;;;;30.80;16.70;;;;;;;6.12;59.72;97589.28;8446966;28;20428;-68
2021/12/06 07:18:18;;;;;;;20.93;17.03;;;;;;;6.18;59.93;97585.69;8453488;28;20407;-68
2021/12/06 07:22:21;;;;;;;23.53;17.20;;;;;;;6.14;59.87;97602.09;8453544;28;20427;-68
2021/12/06 07:26:24;;;;;;;22.13;17.17;;;;;;;6.20;59.68;97605.28;8453193;28;20304;-68
2021/12/06 07:30:27;;;;;;;26.73;17.13;;;;;;;6.21;59.64;97609.56;8453298;28;20260;-68
2021/12/06 07:34:31;;;;;;;25.57;16.97;;;;;;;6.25;59.63;97605.16;8452871;28;20253;-68
2021/12/06 07:38:37;;;;;;;22.13;19.83;;;;;;;6.20;59.85;97607.03;8452814;28;20234;-68
2021/12/06 07:42:40;;;;;;;18.27;15.87;;;;;;;6.29;59.40;97613.63;8453104;28;20230;-68
2021/12/06 07:46:43;;;;;;;20.13;13.80;;;;;;;5.95;60.10;97622.38;8452817;28;20522;-68
2021/12/06 07:50:47;;;;;;;13.63;12.23;;;;;;;6.00;60.00;97618.81;8452429;28;20234;-68
2021/12/06 07:54:50;;;;;;;12.37;11.13;;;;;;;6.01;60.04;97617.06;8452001;28;20229;-68
2021/12/06 07:58:54;;;;;;;28.07;12.57;;;;;;;5.73;60.31;97622.19;8451815;28;20575;-68
2021/12/06 08:02:57;;;;;;;15.33;13.80;;;;;;;6.11;59.63;97628.75;8451789;28;20232;-68
2021/12/06 08:07:03;;;;;;;15.20;12.00;;;;;;;6.05;59.51;97632.38;8451754;28;20315;-68
2021/12/06 08:11:10;;;;;;;22.47;12.80;;;;;;;5.95;59.48;97630.94;8451257;28;20230;-70
2021/12/06 08:15:14;;;;;;;21.53;11.80;;;;;;;5.85;59.49;97632.94;8451504;28;20253;-68
2021/12/06 08:19:17;;;;;;;11.60;10.47;;;;;;;5.95;60.10;97648.06;8451398;28;20436;-68
2021/12/06 08:23:21;;;;;;;15.10;12.00;;;;;;;6.15;59.36;97652.63;8451421;28;20397;-68
2021/12/06 08:27:24;;;;;;;14.30;10.63;;;;;;;6.24;59.17;97653.19;8450653;28;20257;-68
2021/12/06 08:31:29;;;;;;;13.90;10.37;;;;;;;6.25;59.02;97649.72;8450961;28;20229;-68
2021/12/06 08:35:33;;;;;;;18.33;10.97;;;;;;;6.30;59.26;97651.28;8451129;28;20415;-68
2021/12/06 08:39:38;;;;;;;10.80;9.77;;;;;;;6.29;59.39;97650.47;8450884;28;20230;-68
2021/12/06 08:43:42;;;;;;;11.13;10.03;;;;;;;6.45;58.92;97650.78;8451006;28;20244;-68
2021/12/06 08:47:46;;;;;;;11.90;10.70;;;;;;;6.64;58.42;97661.31;8450242;28;20234;-68
2021/12/06 08:51:51;;;;;;;12.43;10.60;;;;;;;6.51;58.73;97660.91;8450122;28;20418;-68
2021/12/06 08:55:56;;;;;;;14.73;11.47;;;;;;;6.59;58.41;97673.53;8450606;28;20230;-68
2021/12/06 08:59:59;;;;;;;11.93;10.70;;;;;;;6.55;58.93;97685.63;8450122;28;20248;-68
2021/12/06 09:04:02;;;;;;;13.23;10.80;;;;;;;6.64;58.77;97684.47;8449691;28;20245;-68
2021/12/06 09:08:05;;;;;;;13.97;11.03;;;;;;;6.71;58.60;97685.97;8449779;28;20553;-68
2021/12/06 09:12:10;;;;;;;19.27;17.10;;;;;;;6.83;58.79;97702.72;8449615;28;20226;-68
2021/12/06 09:16:14;;;;;;;13.47;12.07;;;;;;;8.84;64.54;97696.13;8449541;28;20552;-78
2021/12/06 09:20:18;;;;;;;14.70;11.63;;;;;;;9.94;54.13;97698.22;8449489;28;20423;-80
2021/12/06 09:24:21;;;;;;;14.10;12.70;;;;;;;8.60;53.05;97710.00;8448464;28;20230;-69
2021/12/06 09:28:27;;;;;;;13.43;12.03;;;;;;;8.00;55.02;97709.72;8448870;28;20541;-77
2021/12/06 09:32:30;;;;;;;15.97;12.23;;;;;;;7.71;55.22;97715.97;8447791;28;20240;-79
2021/12/06 09:36:34;;;;;;;14.80;13.30;;;;;;;7.53;56.44;97708.91;8449319;28;20226;-79
2021/12/06 09:40:39;;;;;;;14.70;13.20;;;;;;;7.47;57.02;97706.56;8447780;28;20234;-69
2021/12/06 09:44:43;;;;;;;14.93;13.33;;;;;;;7.42;57.59;97711.84;8448828;28;20237;-70
2021/12/06 09:48:48;;;;;;;17.53;15.73;;;;;;;7.56;57.10;97708.81;8448281;28;20245;-70
2021/12/06 09:52:52;;;;;;;17.63;15.73;;;;;;;7.47;57.54;97709.97;8432356;28;20241;-69
2021/12/06 09:56:56;;;;;;;17.53;13.90;;;;;;;7.38;57.33;97705.13;8414762;28;20230;-69
2021/12/06 10:01:07;;;;;;;13.10;11.80;;;;;;;7.67;57.13;97698.91;8414721;28;20573;-70
2021/12/06 10:05:11;;;;;;;19.43;17.37;;;;;;;7.60;57.03;97706.03;8414093;28;20329;-69
2021/12/06 10:09:17;;;;;;;29.33;26.10;;;;;;;7.77;56.30;97702.00;8414476;28;20249;-69
2021/12/06 10:13:20;;;;;;;13.77;12.33;;;;;;;7.89;56.47;97706.69;8414464;28;20253;-68
2021/12/06 10:17:25;;;;;;;29.17;25.73;;;;;;;7.73;56.41;97698.72;8414225;28;20234;-69
2021/12/06 10:21:28;;;;;;;22.50;18.93;;;;;;;7.63;56.12;97694.78;8418008;28;20237;-69
2021/12/06 10:25:37;;;;;;;40.97;33.03;;;;;;;7.74;55.67;97687.47;8414891;28;20226;-69
2021/12/06 10:29:49;;;;;;;40.00;32.00;;;;;;;7.79;56.64;97682.19;8413604;28;20336;-70
2021/12/06 10:33:55;;;;;;;50.00;38.80;;;;;;;7.69;56.65;97683.41;8413931;28;20231;-69
2021/12/06 10:37:59;;;;;;;106.30;78.27;;;;;;;7.86;56.23;97680.19;8413964;28;20512;-69
2021/12/06 10:42:03;;;;;;;28.13;23.73;;;;;;;8.22;56.36;97671.03;8413870;28;20542;-69
2021/12/06 10:46:07;;;;;;;30.70;23.67;;;;;;;8.00;56.42;97678.78;8413130;28;20233;-70
2021/12/06 10:50:17;;;;;;;53.07;41.17;;;;;;;8.17;55.41;97679.88;8425817;28;20296;-70
2021/12/06 10:54:33;;;;;;;24.87;20.83;;;;;;;8.23;55.27;97671.88;8446764;28;20279;-69
2021/12/06 10:58:36;;;;;;;13.60;12.20;;;;;;;8.33;55.67;97668.03;8446876;28;20234;-69
2021/12/06 11:02:49;;;;;;;14.10;12.60;;;;;;;8.55;55.48;97667.19;8446815;28;20234;-70
2021/12/06 11:07:05;;;;;;;17.50;14.47;;;;;;;8.84;54.17;97660.81;8446577;28;20234;-69
2021/12/06 11:11:09;;;;;;;17.47;15.63;;;;;;;8.72;54.63;97659.59;8446267;28;20332;-70
2021/12/06 11:15:13;;;;;;;23.17;20.30;;;;;;;8.67;55.39;97666.69;8446728;28;20422;-69
2021/12/06 11:19:17;;;;;;;13.77;12.43;;;;;;;8.78;54.38;97661.91;8446859;28;20568;-69
2021/12/06 11:23:22;;;;;;;14.63;13.23;;;;;;;8.82;55.31;97661.81;8446747;28;20564;-68
2021/12/06 11:27:27;;;;;;;19.70;17.23;;;;;;;8.64;55.13;97655.66;8446585;28;20230;-70
2021/12/06 11:31:31;;;;;;;34.37;30.23;;;;;;;8.66;55.26;97657.25;8446394;28;20231;-69
2021/12/06 11:35:34;;;;;;;17.83;15.93;;;;;;;8.69;55.34;97656.31;8445762;28;20230;-68
2021/12/06 11:39:39;;;;;;;18.00;16.10;;;;;;;8.76;55.68;97660.31;8446453;28;20413;-70
2021/12/06 11:43:42;;;;;;;12.30;11.00;;;;;;;8.76;55.21;97661.16;8446430;28;20236;-68
2021/12/06 11:47:45;;;;;;;16.60;13.73;;;;;;;8.94;56.36;97654.34;8445837;28;20551;-68
2021/12/06 11:51:51;;;;;;;13.93;12.47;;;;;;;8.57;56.19;97648.16;8445772;28;20237;-70
2021/12/06 11:55:57;;;;;;;13.33;11.83;;;;;;;8.65;55.75;97642.69;8446032;28;20230;-70
2021/12/06 12:00:07;;;;;;;15.03;11.13;;;;;;;9.09;54.54;97646.84;8445895;28;20249;-69
2021/12/06 12:04:12;;;;;;;22.20;18.97;;;;;;;8.88;55.34;97643.47;8450159;28;20233;-69
2021/12/06 12:08:16;;;;;;;13.67;12.17;;;;;;;8.85;54.90;97649.56;8452074;28;20526;-68
2021/12/06 12:12:23;;;;;;;13.63;12.17;;;;;;;8.76;54.41;97652.56;8451899;28;20230;-69
2021/12/06 12:16:26;;;;;;;15.27;13.67;;;;;;;8.79;54.54;97661.00;8451703;28;20254;-71
2021/12/06 12:20:30;;;;;;;16.00;11.70;;;;;;;8.97;54.78;97658.56;8452362;28;20517;-69
2021/12/06 12:24:34;;;;;;;13.77;11.60;;;;;;;8.65;55.21;97647.84;8451498;28;20414;-72
2021/12/06 12:28:50;;;;;;;16.67;13.83;;;;;;;8.94;53.94;97645.78;8451689;28;20256;-69
2021/12/06 12:32:54;;;;;;;13.80;12.23;;;;;;;8.91;54.65;97646.75;8450808;28;20244;-69
2021/12/06 12:36:57;;;;;;;13.80;11.50;;;;;;;8.99;53.83;97649.84;8450751;28;20422;-69
2021/12/06 12:41:03;;;;;;;14.83;12.63;;;;;;;8.97;54.35;97653.41;8450651;28;20234;-70
2021/12/06 12:45:09;;;;;;;14.87;13.23;;;;;;;8.83;54.14;97653.97;8450671;28;20512;-69
2021/12/06 12:49:14;;;;;;;14.40;12.90;;;;;;;8.78;54.57;97659.34;8450343;28;20233;-68
2021/12/06 12:53:18;;;;;;;16.03;13.27;;;;;;;8.68;55.20;97650.31;8450468;28;20230;-68
2021/12/06 12:57:21;;;;;;;16.30;13.93;;;;;;;8.67;55.07;97660.69;8450363;28;20230;-68
2021/12/06 13:01:28;;;;;;;14.90;13.40;;;;;;;8.78;55.19;97658.50;8433725;28;20237;-68
2021/12/06 13:05:32;;;;;;;17.57;15.43;;;;;;;8.40;55.42;97659.13;8432056;28;20420;-68
2021/12/06 13:09:35;;;;;;;20.93;14.00;;;;;;;8.31;55.77;97659.50;8429369;28;20245;-68
2021/12/06 13:13:42;;;;;;;16.97;13.37;;;;;;;8.61;55.68;97654.03;8418245;28;20237;-68
2021/12/06 13:17:49;;;;;;;19.03;15.77;;;;;;;8.56;53.94;97656.78;8416436;28;20231;-68
2021/12/06 13:22:06;;;;;;;15.60;13.70;;;;;;;8.59;53.53;97650.69;8416165;28;20235;-68
2021/12/06 13:26:10;;;;;;;16.30;13.13;;;;;;;8.68;54.07;97649.44;8415380;28;20222;-68
2021/12/06 13:30:22;;;;;;;17.20;13.57;;;;;;;8.72;53.81;97646.69;8415661;28;20241;-69
2021/12/06 13:34:27;;;;;;;14.60;13.10;;;;;;;8.78;53.95;97638.69;8415803;28;20231;-68
2021/12/06 13:38:45;;;;;;;13.40;11.43;;;;;;;8.62;53.39;97640.22;8415467;28;20442;-68
2021/12/06 13:42:49;;;;;;;14.13;11.23;;;;;;;8.54;53.44;97632.78;8415150;28;20558;-69
2021/12/06 13:46:53;;;;;;;13.33;11.50;;;;;;;8.60;52.93;97629.97;8415625;28;20242;-69
2021/12/06 13:50:58;;;;;;;14.60;11.50;;;;;;;8.46;53.53;97640.03;8433637;28;20238;-68
2021/12/06 13:55:02;;;;;;;13.07;11.30;;;;;;;8.64;52.96;97646.16;8448493;28;20240;-68
2021/12/06 13:59:05;;;;;;;14.37;12.03;;;;;;;8.54;53.16;97647.44;8430738;28;20226;-68
2021/12/06 14:03:12;;;;;;;13.73;12.23;;;;;;;8.47;53.74;97653.75;8430144;28;20214;-68
2021/12/06 14:07:19;;;;;;;17.20;13.73;;;;;;;8.54;54.11;97653.44;8414353;28;20296;-68
2021/12/06 14:11:24;;;;;;;18.97;15.10;;;;;;;8.43;54.38;97654.78;8414469;28;20430;-68
2021/12/06 14:15:41;;;;;;;16.30;12.57;;;;;;;8.39;54.23;97654.88;8414548;28;20226;-68
2021/12/06 14:19:46;;;;;;;14.30;11.63;;;;;;;8.38;54.19;97670.44;8414094;28;20295;-68
2021/12/06 14:23:50;;;;;;;21.33;18.60;;;;;;;8.26;54.74;97673.47;8414038;28;20234;-67
2021/12/06 14:27:53;;;;;;;14.13;11.80;;;;;;;8.19;54.76;97666.00;8413600;28;20241;-68
2021/12/06 14:31:59;;;;;;;17.50;15.03;;;;;;;8.12;54.95;97677.44;8413621;28;20425;-68
2021/12/06 14:36:05;;;;;;;15.37;12.77;;;;;;;8.26;54.64;97670.91;8413950;28;20482;-68
2021/12/06 14:40:11;;;;;;;20.13;17.97;;;;;;;8.12;54.86;97677.44;8413333;28;20230;-68
2021/12/06 14:44:29;;;;;;;30.30;25.43;;;;;;;8.03;55.00;97670.94;8413608;28;20234;-68
2021/12/06 14:48:33;;;;;;;23.83;21.23;;;;;;;8.00;55.06;97676.19;8413690;28;20231;-68
2021/12/06 14:52:41;;;;;;;29.20;23.50;;;;;;;8.13;55.10;97681.72;8446376;28;20241;-68
2021/12/06 14:56:51;;;;;;;34.37;30.13;;;;;;;8.07;55.16;97669.03;8447123;28;20246;-66
2021/12/06 15:00:58;;;;;;;15.57;12.70;;;;;;;8.13;55.01;97671.41;8446845;28;20440;-66
2021/12/06 15:05:03;;;;;;;13.53;10.47;;;;;;;8.13;54.80;97665.38;8446942;28;20544;-66
2021/12/06 15:09:07;;;;;;;13.17;10.43;;;;;;;8.03;55.17;97668.34;8446886;28;20348;-66
2021/12/06 15:13:12;;;;;;;14.10;10.93;;;;;;;7.92;54.74;97656.75;8446601;28;20432;-66
2021/12/06 15:17:16;;;;;;;14.60;11.30;;;;;;;7.95;54.85;97662.63;8446755;28;20422;-66
2021/12/06 15:21:23;;;;;;;16.03;12.93;;;;;;;7.97;55.10;97665.97;8446316;28;20246;-66
2021/12/06 15:25:27;;;;;;;14.37;11.93;;;;;;;7.99;55.23;97663.34;8428681;28;20231;-67
2021/12/06 15:29:36;;;;;;;14.97;12.30;;;;;;;7.96;55.38;97668.66;8429062;28;20226;-67
2021/12/06 15:33:41;;;;;;;15.77;13.43;;;;;;;7.93;55.54;97672.16;8446240;28;20560;-66
2021/12/06 15:37:44;;;;;;;15.70;14.10;;;;;;;7.98;55.43;97656.53;8448921;28;20261;-66
2021/12/06 15:41:50;;;;;;;16.37;14.20;;;;;;;7.75;55.75;97658.25;8452645;28;20425;-66
2021/12/06 15:45:56;;;;;;;19.93;16.97;;;;;;;7.75;55.72;97653.09;8452562;28;20229;-66
2021/12/06 15:50:00;;;;;;;32.87;23.07;;;;;;;7.85;55.96;97663.06;8452182;28;20440;-65
2021/12/06 15:54:09;;;;;;;33.70;22.93;;;;;;;7.83;55.79;97663.94;8452249;28;20230;-65
2021/12/06 15:58:17;;;;;;;16.50;13.77;;;;;;;7.71;56.28;97660.97;8451599;28;20241;-66
2021/12/06 16:02:25;;;;;;;17.20;14.10;;;;;;;7.79;55.93;97658.97;8451948;28;20238;-66
2021/12/06 16:06:33;;;;;;;14.50;11.03;;;;;;;7.74;55.48;97658.28;8451988;28;20252;-66
2021/12/06 16:10:38;;;;;;;11.07;9.87;;;;;;;7.80;55.60;97665.78;8452105;28;20229;-66
2021/12/06 16:14:46;;;;;;;12.37;10.63;;;;;;;7.78;55.33;97673.56;8451942;28;20238;-67
2021/12/06 16:18:54;;;;;;;11.07;9.97;;;;;;;7.79;55.39;97683.00;8451723;28;20237;-65
2021/12/06 16:22:58;;;;;;;12.10;9.83;;;;;;;7.68;55.42;97681.72;8451416;28;20238;-65
2021/12/06 16:27:11;;;;;;;11.50;9.63;;;;;;;7.72;55.41;97675.56;8451598;28;20237;-66
2021/12/06 16:31:15;;;;;;;11.40;9.47;;;;;;;7.63;55.09;97684.47;8450900;28;20237;-66
2021/12/06 16:35:19;;;;;;;10.90;9.67;;;;;;;7.55;54.99;97684.75;8451264;28;20230;-86
2021/12/06 16:39:33;;;;;;;11.07;9.50;;;;;;;7.57;55.04;97685.53;8452519;28;20423;-83
2021/12/06 16:43:36;;;;;;;11.47;9.27;;;;;;;7.68;54.83;97684.31;8452486;28;20537;-80
2021/12/06 16:47:42;;;;;;;12.13;9.57;;;;;;;7.70;54.93;97682.50;8451724;28;20236;-86
2021/12/06 16:51:46;;;;;;;11.10;9.43;;;;;;;7.60;54.48;97682.03;8452814;28;20233;-86
2021/12/06 16:55:52;;;;;;;12.73;11.43;;;;;;;7.39;54.89;97668.19;8452341;28;20230;-80
2021/12/06 16:59:55;;;;;;;13.90;12.30;;;;;;;7.51;55.31;97665.16;8423743;28;20238;-85
2021/12/06 17:04:16;;;;;;;14.97;13.43;;;;;;;7.42;55.07;97663.75;8451370;28;20417;-87
2021/12/06 17:08:26;;;;;;;15.17;13.20;;;;;;;7.47;54.98;97673.06;8452403;28;20230;-87
2021/12/06 17:12:34;;;;;;;15.83;13.87;;;;;;;7.45;54.88;97657.66;8452223;28;20230;-83
2021/12/06 17:16:39;;;;;;;15.90;13.63;;;;;;;7.44;55.04;97661.09;8449329;28;20256;-87
2021/12/06 17:20:44;;;;;;;15.60;13.07;;;;;;;7.55;54.56;97655.56;8429025;28;20230;-83
2021/12/06 17:24:57;;;;;;;13.43;12.03;;;;;;;7.31;54.60;97653.00;8420335;28;20285;-80
2021/12/06 17:29:04;;;;;;;13.83;12.33;;;;;;;7.42;54.49;97648.31;8451187;28;20245;-83
2021/12/06 17:33:11;;;;;;;14.53;12.73;;;;;;;7.51;54.89;97635.97;8435259;28;20230;-83
2021/12/06 17:37:14;;;;;;;14.77;12.93;;;;;;;7.47;54.73;97631.84;8415752;28;20250;-82
2021/12/06 17:41:20;;;;;;;19.60;16.60;;;;;;;7.56;55.00;97627.16;8416092;28;20234;-78
2021/12/06 17:45:23;;;;;;;20.07;15.23;;;;;;;7.47;54.83;97624.94;8428459;28;20245;-75
2021/12/06 17:49:28;;;;;;;18.60;16.47;;;;;;;7.51;55.00;97616.19;8428508;28;20226;-74
2021/12/06 17:53:31;;;;;;;23.13;19.27;;;;;;;7.54;55.17;97613.50;8414799;28;20290;-74
2021/12/06 17:57:49;;;;;;;14.47;12.00;;;;;;;7.50;54.52;97614.53;8414874;28;20230;-73
2021/12/06 18:01:56;;;;;;;12.37;11.00;;;;;;;7.48;54.37;97608.56;8414081;28;20238;-74
2021/12/06 18:06:00;;;;;;;13.80;10.73;;;;;;;7.42;54.39;97609.66;8415231;28;20525;-75
2021/12/06 18:10:03;;;;;;;11.47;10.27;;;;;;;7.39;54.16;97601.19;8414766;28;20230;-74
2021/12/06 18:14:08;;;;;;;13.07;11.77;;;;;;;7.41;54.18;97607.97;8413612;28;20231;-73
2021/12/06 18:18:11;;;;;;;13.90;11.93;;;;;;;7.37;54.63;97600.41;8423543;28;20340;-73
2021/12/06 18:22:15;;;;;;;14.20;12.60;;;;;;;7.32;54.58;97599.75;8447357;28;20234;-75
2021/12/06 18:26:18;;;;;;;20.30;16.13;;;;;;;7.32;54.31;97595.41;8441102;28;20229;-76
2021/12/06 18:30:22;;;;;;;18.63;16.63;;;;;;;7.34;54.68;97593.63;8428219;28;20308;-74
2021/12/06 18:34:25;;;;;;;15.87;14.17;;;;;;;7.23;54.47;97596.63;8430087;28;20247;-73
2021/12/06 18:38:36;;;;;;;17.73;15.97;;;;;;;7.18;54.73;97606.25;8441040;28;20240;-73
2021/12/06 18:42:51;;;;;;;20.23;16.97;;;;;;;7.19;54.37;97602.75;8447109;28;20241;-72
2021/12/06 18:46:55;;;;;;;20.17;18.07;;;;;;;7.07;54.47;97604.97;8447391;28;20233;-73
2021/12/06 18:51:00;;;;;;;21.50;17.03;;;;;;;7.04;54.86;97605.88;8427899;28;20231;-73
2021/12/06 18:55:05;;;;;;;23.23;19.17;;;;;;;7.03;54.84;97594.75;8445149;28;20230;-73
2021/12/06 18:59:09;;;;;;;20.83;18.50;;;;;;;6.97;54.53;97601.88;8433942;28;20262;-73
2021/12/06 19:03:14;;;;;;;19.00;15.97;;;;;;;7.02;54.29;97599.94;8412864;28;20242;-72
2021/12/06 19:07:18;;;;;;;17.43;15.33;;;;;;;7.02;54.24;97608.50;8413245;28;20237;-74